createdAt,value
2023-02-14T00:00:22.167Z,-3.24
2023-02-14T00:01:18.908Z,-3.38
2023-02-14T00:02:15.474Z,-3.27
2023-02-14T00:03:14.500Z,-3.29
2023-02-14T00:04:11.834Z,-3.65
2023-02-14T00:05:08.729Z,-3.27
2023-02-14T00:06:09.991Z,-2.81
2023-02-14T00:07:06.697Z,-2.80
2023-02-14T00:08:03.320Z,-2.83
2023-02-14T00:08:59.967Z,-2.72
2023-02-14T00:09:56.570Z,-3.19
2023-02-14T00:10:53.166Z,-2.78
2023-02-14T00:11:50.238Z,-2.50
2023-02-14T00:12:46.832Z,-2.43
2023-02-14T00:14:03.330Z,-2.47
2023-02-14T00:15:18.473Z,-2.55
2023-02-14T00:16:15.108Z,-2.75
2023-02-14T00:17:11.692Z,-2.45
2023-02-14T00:18:08.283Z,-2.50
2023-02-14T00:19:04.967Z,-2.51
2023-02-14T00:20:01.566Z,-2.44
2023-02-14T00:21:00.669Z,-2.50
2023-02-14T00:21:57.576Z,-2.92
2023-02-14T00:22:54.282Z,-2.63
2023-02-14T00:23:50.909Z,-2.43
2023-02-14T00:24:47.655Z,-1.96
2023-02-14T00:25:44.237Z,-1.96
2023-02-14T00:26:41.814Z,-2.32
2023-02-14T00:27:38.422Z,-2.69
2023-02-14T00:28:34.949Z,-2.54
2023-02-14T00:29:33.071Z,-3.06
2023-02-14T00:30:29.966Z,-2.53
2023-02-14T00:31:26.838Z,-2.56
2023-02-14T00:32:23.772Z,-2.72
2023-02-14T00:33:20.396Z,-2.81
2023-02-14T00:34:18.335Z,-2.69
2023-02-14T00:35:14.902Z,-2.66
2023-02-14T00:36:12.129Z,-2.81
2023-02-14T00:37:09.017Z,-3.10
2023-02-14T00:38:05.703Z,-2.80
2023-02-14T00:39:07.189Z,-2.64
2023-02-14T00:40:05.798Z,-2.70
2023-02-14T00:41:03.050Z,-2.67
2023-02-14T00:41:59.628Z,-2.79
2023-02-14T00:42:56.185Z,-2.95
2023-02-14T00:43:54.065Z,-2.66
2023-02-14T00:44:50.650Z,-2.67
2023-02-14T00:45:47.220Z,-2.68
2023-02-14T00:46:44.341Z,-2.69
2023-02-14T00:47:40.941Z,-2.78
2023-02-14T00:48:37.615Z,-2.81
2023-02-14T00:49:34.320Z,-2.80
2023-02-14T00:50:30.922Z,-2.74
2023-02-14T00:51:27.642Z,-2.92
2023-02-14T00:52:24.213Z,-2.92
2023-02-14T00:53:20.834Z,-2.82
2023-02-14T00:54:17.508Z,-2.95
2023-02-14T00:55:14.096Z,-2.76
2023-02-14T00:56:10.829Z,-2.66
2023-02-14T00:57:07.409Z,-2.71
2023-02-14T00:58:03.996Z,-2.80
2023-02-14T00:59:00.605Z,-2.91
2023-02-14T00:59:57.237Z,-2.79
2023-02-14T01:00:53.968Z,-2.64
2023-02-14T01:01:50.738Z,-2.66
2023-02-14T01:02:47.391Z,-2.33
2023-02-14T01:03:44.065Z,-2.53
2023-02-14T01:04:40.656Z,-2.67
2023-02-14T01:05:37.277Z,-2.60
2023-02-14T01:06:34.124Z,-2.74
2023-02-14T01:07:30.779Z,-2.81
2023-02-14T01:08:27.511Z,-2.87
2023-02-14T01:09:24.185Z,-3.01
2023-02-14T01:10:20.810Z,-3.06
2023-02-14T01:11:19.958Z,-3.65
2023-02-14T01:12:16.496Z,-3.46
2023-02-14T01:13:14.265Z,-3.02
2023-02-14T01:14:11.470Z,-2.92
2023-02-14T01:15:08.495Z,-2.89
2023-02-14T01:16:11.185Z,-3.03
2023-02-14T01:17:07.822Z,-2.82
2023-02-14T01:18:04.453Z,-3.25
2023-02-14T01:19:01.374Z,-3.15
2023-02-14T01:19:57.953Z,-3.25
2023-02-14T01:20:54.581Z,-2.99
2023-02-14T01:21:51.118Z,-2.98
2023-02-14T01:22:47.667Z,-3.01
2023-02-14T01:23:44.892Z,-3.00
2023-02-14T01:24:41.465Z,-2.68
2023-02-14T01:25:39.019Z,-2.59
2023-02-14T01:26:36.180Z,-2.44
2023-02-14T01:27:33.330Z,-2.24
2023-02-14T01:28:29.921Z,-2.28
2023-02-14T01:29:26.472Z,-2.28
2023-02-14T01:30:23.131Z,-2.41
2023-02-14T01:31:22.601Z,-2.34
2023-02-14T01:32:19.326Z,-2.69
2023-02-14T01:33:15.859Z,-2.38
2023-02-14T01:34:12.882Z,-2.54
2023-02-14T01:35:10.227Z,-2.39
2023-02-14T01:36:07.601Z,-2.67
2023-02-14T01:37:04.189Z,-2.28
2023-02-14T01:38:00.728Z,-2.34
2023-02-14T01:39:00.380Z,-2.38
2023-02-14T01:39:56.933Z,-2.51
2023-02-14T01:40:53.613Z,-2.90
2023-02-14T01:41:50.290Z,-2.59
2023-02-14T01:42:46.941Z,-2.60
2023-02-14T01:44:06.002Z,-2.70
2023-02-14T01:45:06.212Z,-2.64
2023-02-14T01:46:02.891Z,-2.52
2023-02-14T01:47:03.223Z,-2.96
2023-02-14T01:48:00.268Z,-2.58
2023-02-14T01:49:09.098Z,-3.49
2023-02-14T01:50:14.860Z,-2.66
2023-02-14T01:51:11.597Z,-2.62
2023-02-14T01:52:22.408Z,-2.60
2023-02-14T01:53:24.973Z,-2.70
2023-02-14T01:54:24.253Z,-3.04
2023-02-14T01:55:24.808Z,-2.64
2023-02-14T01:56:27.530Z,-2.58
2023-02-14T01:57:29.411Z,-2.49
2023-02-14T01:58:29.575Z,-2.55
2023-02-14T01:59:31.206Z,-2.69
2023-02-14T02:00:46.660Z,-2.55
2023-02-14T02:01:45.123Z,-2.79
2023-02-14T02:02:41.741Z,-3.23
2023-02-14T02:03:44.271Z,-2.76
2023-02-14T02:04:46.880Z,-3.27
2023-02-14T02:05:48.843Z,-2.68
2023-02-14T02:06:52.297Z,-2.94
2023-02-14T02:07:50.444Z,-2.72
2023-02-14T02:09:31.220Z,-2.53
2023-02-14T02:10:29.154Z,-3.30
2023-02-14T02:11:26.623Z,-2.91
2023-02-14T02:12:23.623Z,-2.56
2023-02-14T02:13:22.103Z,-2.58
2023-02-14T02:14:21.756Z,-2.46
2023-02-14T02:15:19.304Z,-2.61
2023-02-14T02:16:28.208Z,-2.56
2023-02-14T02:17:39.828Z,-2.52
2023-02-14T02:18:55.085Z,-2.57
2023-02-14T02:20:29.091Z,-2.72
2023-02-14T02:21:55.022Z,-2.35
2023-02-14T02:23:13.241Z,-2.29
2023-02-14T02:24:34.571Z,-2.64
2023-02-14T02:25:52.942Z,-2.60
2023-02-14T02:26:49.529Z,-2.59
2023-02-14T02:28:15.452Z,-2.38
2023-02-14T02:29:26.892Z,-2.33
2023-02-14T02:30:45.215Z,-2.43
2023-02-14T02:31:47.594Z,-2.58
2023-02-14T02:32:55.667Z,-2.43
2023-02-14T02:34:01.316Z,-2.47
2023-02-14T02:35:30.648Z,-2.58
2023-02-14T02:36:55.282Z,-2.79
2023-02-14T02:37:51.819Z,-2.73
2023-02-14T02:39:05.691Z,-3.02
2023-02-14T02:40:21.056Z,-2.79
2023-02-14T02:41:24.177Z,-2.75
2023-02-14T02:42:46.511Z,-2.89
2023-02-14T02:44:07.911Z,-2.69
2023-02-14T02:45:58.670Z,-2.73
2023-02-14T02:47:07.885Z,-2.72
2023-02-14T02:48:15.367Z,-2.72
2023-02-14T02:49:45.478Z,-2.73
2023-02-14T02:51:04.945Z,-2.81
2023-02-14T02:52:22.893Z,-2.96
2023-02-14T02:53:41.247Z,-2.78
2023-02-14T02:54:44.704Z,-3.18
2023-02-14T02:56:16.434Z,-2.73
2023-02-14T02:57:20.012Z,-2.66
2023-02-14T02:58:18.570Z,-2.67
2023-02-14T02:59:21.085Z,-2.64
2023-02-14T03:00:18.964Z,-2.89
2023-02-14T03:01:20.874Z,-2.79
2023-02-14T03:02:29.660Z,-2.85
2023-02-14T03:03:46.708Z,-2.85
2023-02-14T03:04:55.991Z,-2.93
2023-02-14T03:05:52.888Z,-2.94
2023-02-14T03:06:50.754Z,-2.79
2023-02-14T03:07:48.954Z,-2.81
2023-02-14T03:08:45.541Z,-2.99
2023-02-14T03:09:42.216Z,-2.88
2023-02-14T03:10:39.625Z,-3.01
2023-02-14T03:11:39.644Z,-2.66
2023-02-14T03:12:38.801Z,-2.62
2023-02-14T03:13:49.388Z,-2.67
2023-02-14T03:15:02.716Z,-2.88
2023-02-14T03:16:20.485Z,-2.72
2023-02-14T03:17:34.626Z,-2.65
2023-02-14T03:19:02.067Z,-2.73
2023-02-14T03:20:20.264Z,-2.69
2023-02-14T03:21:34.202Z,-2.93
2023-02-14T03:22:43.670Z,-2.93
2023-02-14T03:23:51.655Z,-2.73
2023-02-14T03:25:11.641Z,-2.69
2023-02-14T03:26:18.479Z,-2.75
2023-02-14T03:27:27.061Z,-3.22
2023-02-14T03:28:42.735Z,-2.89
2023-02-14T03:29:58.854Z,-2.68
2023-02-14T03:31:06.982Z,-3.36
2023-02-14T03:32:21.827Z,-2.59
2023-02-14T03:33:32.143Z,-2.88
2023-02-14T03:34:41.083Z,-2.67
2023-02-14T03:35:51.922Z,-2.78
2023-02-14T03:36:59.114Z,-2.79
2023-02-14T03:38:00.556Z,-2.96
2023-02-14T03:39:15.517Z,-3.63
2023-02-14T03:40:19.542Z,-3.05
2023-02-14T03:41:23.842Z,-3.45
2023-02-14T03:42:28.590Z,-3.28
2023-02-14T03:43:31.786Z,-3.84
2023-02-14T03:44:31.095Z,-3.21
2023-02-14T03:45:39.574Z,-3.24
2023-02-14T03:46:41.658Z,-3.18
2023-02-14T03:47:41.958Z,-3.23
2023-02-14T03:48:40.789Z,-3.08
2023-02-14T03:49:41.444Z,-3.29
2023-02-14T03:50:41.162Z,-3.18
2023-02-14T03:51:39.159Z,-3.15
2023-02-14T03:52:37.816Z,-3.17
2023-02-14T03:53:38.633Z,-2.98
2023-02-14T03:54:36.413Z,-3.15
2023-02-14T03:55:40.437Z,-3.23
2023-02-14T03:56:48.258Z,-3.22
2023-02-14T03:57:58.689Z,-3.14
2023-02-14T03:59:00.844Z,-3.43
2023-02-14T03:59:57.800Z,-3.05
2023-02-14T04:01:00.848Z,-3.56
2023-02-14T04:02:29.843Z,-2.75
2023-02-14T04:03:29.309Z,-3.16
2023-02-14T04:04:28.905Z,-2.87
2023-02-14T04:05:28.075Z,-2.92
2023-02-14T04:06:24.773Z,-2.78
2023-02-14T04:07:23.108Z,-2.88
2023-02-14T04:08:25.695Z,-2.84
2023-02-14T04:09:22.290Z,-3.18
2023-02-14T04:10:20.049Z,-3.00
2023-02-14T04:11:16.768Z,-3.03
2023-02-14T04:12:15.544Z,-3.03
2023-02-14T04:13:12.675Z,-3.53
2023-02-14T04:14:09.313Z,-3.31
2023-02-14T04:15:06.590Z,-3.19
2023-02-14T04:16:03.699Z,-3.24
2023-02-14T04:17:18.989Z,-3.06
2023-02-14T04:18:34.307Z,-3.11
2023-02-14T04:19:30.955Z,-3.05
2023-02-14T04:20:28.674Z,-3.15
2023-02-14T04:21:25.617Z,-3.24
2023-02-14T04:22:22.202Z,-3.21
2023-02-14T04:23:18.807Z,-3.16
2023-02-14T04:24:15.408Z,-3.37
2023-02-14T04:25:12.834Z,-3.17
2023-02-14T04:26:09.506Z,-3.22
2023-02-14T04:27:13.010Z,-4.12
2023-02-14T04:28:10.019Z,-3.29
2023-02-14T04:29:06.594Z,-3.35
2023-02-14T04:30:03.738Z,-3.54
2023-02-14T04:31:05.424Z,-3.28
2023-02-14T04:32:02.236Z,-3.30
2023-02-14T04:32:58.894Z,-3.28
2023-02-14T04:33:55.896Z,-3.12
2023-02-14T04:34:52.551Z,-3.17
2023-02-14T04:35:49.218Z,-3.24
2023-02-14T04:36:45.797Z,-3.18
2023-02-14T04:37:42.603Z,-3.49
2023-02-14T04:38:39.314Z,-3.10
2023-02-14T04:39:36.486Z,-3.49
2023-02-14T04:40:33.186Z,-3.27
2023-02-14T04:41:29.742Z,-2.99
2023-02-14T04:42:26.382Z,-2.80
2023-02-14T04:43:22.937Z,-3.34
2023-02-14T04:44:19.568Z,-2.64
2023-02-14T04:45:16.142Z,-3.00
2023-02-14T04:46:12.745Z,-2.94
2023-02-14T04:47:09.664Z,-3.38
2023-02-14T04:48:06.301Z,-2.83
2023-02-14T04:49:02.943Z,-2.77
2023-02-14T04:49:59.537Z,-2.70
2023-02-14T04:50:56.425Z,-2.79
2023-02-14T04:51:53.137Z,-3.45
2023-02-14T04:52:49.757Z,-3.06
2023-02-14T04:53:46.545Z,-3.04
2023-02-14T04:54:43.360Z,-3.00
2023-02-14T04:55:39.946Z,-3.14
2023-02-14T04:56:36.995Z,-3.03
2023-02-14T04:57:33.664Z,-2.97
2023-02-14T04:58:30.228Z,-3.12
2023-02-14T04:59:26.941Z,-3.05
2023-02-14T05:00:24.283Z,-2.81
2023-02-14T05:01:21.045Z,-2.85
2023-02-14T05:02:17.803Z,-2.75
2023-02-14T05:03:14.458Z,-2.77
2023-02-14T05:04:12.488Z,-2.94
2023-02-14T05:05:09.121Z,-3.36
2023-02-14T05:06:05.999Z,-2.82
2023-02-14T05:07:03.001Z,-2.88
2023-02-14T05:07:59.649Z,-3.06
2023-02-14T05:08:56.758Z,-2.92
2023-02-14T05:09:53.365Z,-2.87
2023-02-14T05:10:49.938Z,-3.03
2023-02-14T05:11:46.520Z,-3.04
2023-02-14T05:12:43.295Z,-2.81
2023-02-14T05:13:39.964Z,-2.55
2023-02-14T05:14:36.623Z,-2.22
2023-02-14T05:15:33.333Z,-2.22
2023-02-14T05:16:29.938Z,-2.28
2023-02-14T05:17:26.555Z,-2.56
2023-02-14T05:18:23.148Z,-2.59
2023-02-14T05:19:19.857Z,-2.77
2023-02-14T05:20:16.584Z,-3.74
2023-02-14T05:21:13.568Z,-3.29
2023-02-14T05:22:12.505Z,-2.94
2023-02-14T05:23:13.742Z,-2.87
2023-02-14T05:24:12.521Z,-2.77
2023-02-14T05:25:09.191Z,-2.73
2023-02-14T05:26:06.068Z,-2.67
2023-02-14T05:27:02.771Z,-2.82
2023-02-14T05:27:59.422Z,-3.04
2023-02-14T05:28:56.765Z,-2.86
2023-02-14T05:29:53.420Z,-2.79
2023-02-14T05:30:51.419Z,-3.05
2023-02-14T05:31:48.147Z,-3.00
2023-02-14T05:32:44.770Z,-3.03
2023-02-14T05:33:41.381Z,-3.02
2023-02-14T05:34:37.988Z,-2.95
2023-02-14T05:35:34.652Z,-2.83
2023-02-14T05:36:31.327Z,-2.79
2023-02-14T05:37:27.944Z,-2.83
2023-02-14T05:38:24.602Z,-2.85
2023-02-14T05:39:21.281Z,-2.78
2023-02-14T05:40:18.125Z,-2.44
2023-02-14T05:41:14.777Z,-2.95
2023-02-14T05:42:12.846Z,-2.35
2023-02-14T05:43:10.154Z,-2.38
2023-02-14T05:44:06.847Z,-2.24
2023-02-14T05:45:03.511Z,-2.16
2023-02-14T05:46:00.282Z,-2.22
2023-02-14T05:46:56.925Z,-2.26
2023-02-14T05:47:53.496Z,-2.28
2023-02-14T05:48:50.084Z,-3.53
2023-02-14T05:49:46.630Z,-2.34
2023-02-14T05:50:45.242Z,-2.33
2023-02-14T05:51:41.845Z,-2.40
2023-02-14T05:52:38.662Z,-2.44
2023-02-14T05:53:35.698Z,-2.16
2023-02-14T05:54:32.287Z,-2.01
2023-02-14T05:55:28.972Z,-2.06
2023-02-14T05:56:25.711Z,-2.92
2023-02-14T05:57:22.397Z,-1.87
2023-02-14T05:58:18.969Z,-2.29
2023-02-14T05:59:15.646Z,-2.33
2023-02-14T06:00:12.952Z,-1.71
2023-02-14T06:01:09.571Z,-1.83
2023-02-14T06:02:06.291Z,-1.72
2023-02-14T06:03:03.220Z,-2.46
2023-02-14T06:03:59.796Z,-1.95
2023-02-14T06:04:56.407Z,-2.19
2023-02-14T06:05:52.995Z,-2.39
2023-02-14T06:06:49.581Z,-2.02
2023-02-14T06:07:50.650Z,-1.89
2023-02-14T06:08:47.299Z,-1.84
2023-02-14T06:09:43.881Z,-1.46
2023-02-14T06:10:40.581Z,-1.62
2023-02-14T06:11:37.225Z,-1.78
2023-02-14T06:12:33.815Z,-1.81
2023-02-14T06:13:30.774Z,-1.84
2023-02-14T06:14:27.634Z,-1.89
2023-02-14T06:15:24.460Z,-1.87
2023-02-14T06:16:21.151Z,-1.80
2023-02-14T06:17:17.765Z,-1.82
2023-02-14T06:18:15.220Z,-1.73
2023-02-14T06:19:11.812Z,-1.67
2023-02-14T06:20:12.345Z,-1.47
2023-02-14T06:21:08.923Z,-1.79
2023-02-14T06:22:05.621Z,-1.41
2023-02-14T06:23:02.569Z,-1.71
2023-02-14T06:23:59.203Z,-1.42
2023-02-14T06:24:55.794Z,-1.70
2023-02-14T06:25:52.353Z,-1.85
2023-02-14T06:26:48.925Z,-1.12
2023-02-14T06:27:49.058Z,-1.22
2023-02-14T06:28:45.849Z,-1.06
2023-02-14T06:29:42.422Z,-1.09
2023-02-14T06:30:39.227Z,-1.39
2023-02-14T06:31:36.263Z,-0.82
2023-02-14T06:32:32.957Z,-0.77
2023-02-14T06:33:29.576Z,-0.71
2023-02-14T06:34:26.146Z,-0.70
2023-02-14T06:35:23.108Z,-0.70
2023-02-14T06:36:21.796Z,-0.62
2023-02-14T06:37:18.407Z,-0.34
2023-02-14T06:38:15.067Z,-0.67
2023-02-14T06:39:11.679Z,-0.18
2023-02-14T06:40:10.127Z,-0.26
2023-02-14T06:41:08.219Z,-0.50
2023-02-14T06:42:04.966Z,-0.36
2023-02-14T06:43:01.628Z,-0.15
2023-02-14T06:43:58.244Z,-0.01
2023-02-14T06:44:54.832Z,0.18
2023-02-14T06:45:51.469Z,0.34
2023-02-14T06:46:48.088Z,-0.10
2023-02-14T06:47:46.027Z,0.28
2023-02-14T06:48:43.067Z,0.35
2023-02-14T06:49:39.981Z,0.22
2023-02-14T06:50:37.458Z,0.47
2023-02-14T06:51:34.067Z,0.22
2023-02-14T06:52:34.014Z,0.14
2023-02-14T06:53:30.590Z,0.28
2023-02-14T06:54:27.271Z,0.47
2023-02-14T06:55:23.886Z,0.34
2023-02-14T06:56:20.479Z,0.43
2023-02-14T06:57:17.066Z,0.55
2023-02-14T06:58:14.077Z,0.63
2023-02-14T06:59:10.862Z,0.65
2023-02-14T07:00:08.571Z,0.79
2023-02-14T07:01:05.464Z,0.79
2023-02-14T07:02:02.101Z,0.35
2023-02-14T07:02:58.783Z,0.86
2023-02-14T07:03:55.463Z,0.68
2023-02-14T07:04:52.164Z,0.78
2023-02-14T07:05:48.909Z,0.86
2023-02-14T07:06:46.304Z,0.78
2023-02-14T07:07:42.920Z,0.39
2023-02-14T07:08:39.540Z,0.92
2023-02-14T07:09:36.290Z,0.93
2023-02-14T07:10:34.292Z,0.79
2023-02-14T07:11:30.923Z,0.87
2023-02-14T07:12:27.494Z,0.95
2023-02-14T07:13:25.264Z,1.06
2023-02-14T07:14:21.873Z,1.27
2023-02-14T07:15:18.810Z,1.45
2023-02-14T07:16:15.414Z,1.39
2023-02-14T07:17:12.084Z,1.24
2023-02-14T07:18:10.586Z,1.38
2023-02-14T07:19:07.258Z,1.55
2023-02-14T07:20:04.994Z,1.63
2023-02-14T07:21:02.076Z,1.57
2023-02-14T07:21:58.948Z,1.77
2023-02-14T07:22:55.683Z,1.74
2023-02-14T07:23:52.279Z,1.58
2023-02-14T07:24:48.936Z,1.76
2023-02-14T07:25:45.619Z,1.00
2023-02-14T07:26:42.242Z,1.90
2023-02-14T07:27:39.576Z,1.62
2023-02-14T07:28:36.256Z,2.22
2023-02-14T07:29:32.931Z,2.01
2023-02-14T07:30:29.675Z,1.96
2023-02-14T07:31:26.390Z,2.10
2023-02-14T07:32:23.666Z,1.76
2023-02-14T07:33:20.427Z,1.50
2023-02-14T07:34:17.085Z,1.20
2023-02-14T07:35:15.261Z,1.60
2023-02-14T07:36:12.039Z,2.23
2023-02-14T07:37:08.831Z,2.00
2023-02-14T07:38:05.492Z,2.24
2023-02-14T07:39:02.073Z,2.33
2023-02-14T07:39:58.742Z,2.24
2023-02-14T07:40:55.336Z,2.27
2023-02-14T07:41:51.943Z,1.96
2023-02-14T07:42:58.708Z,2.49
2023-02-14T07:43:55.255Z,2.47
2023-02-14T07:44:51.890Z,2.61
2023-02-14T07:45:48.938Z,2.53
2023-02-14T07:46:45.524Z,2.22
2023-02-14T07:47:42.089Z,2.04
2023-02-14T07:48:39.368Z,2.37
2023-02-14T07:49:36.634Z,2.56
2023-02-14T07:50:33.277Z,2.36
2023-02-14T07:51:29.907Z,2.40
2023-02-14T07:52:26.807Z,2.18
2023-02-14T07:53:24.570Z,2.38
2023-02-14T07:54:21.316Z,2.03
2023-02-14T07:55:19.350Z,2.33
2023-02-14T07:56:16.051Z,2.47
2023-02-14T07:57:12.645Z,2.24
2023-02-14T07:58:09.451Z,1.81
2023-02-14T07:59:06.015Z,2.03
2023-02-14T08:00:03.718Z,2.30
2023-02-14T08:01:00.695Z,2.23
2023-02-14T08:01:57.526Z,2.28
2023-02-14T08:02:56.083Z,2.50
2023-02-14T08:03:52.753Z,2.23
2023-02-14T08:04:49.328Z,2.36
2023-02-14T08:05:57.115Z,1.58
2023-02-14T08:06:54.612Z,2.37
2023-02-14T08:07:51.178Z,2.59
2023-02-14T08:08:48.330Z,2.38
2023-02-14T08:09:44.973Z,2.61
2023-02-14T08:10:41.522Z,2.53
2023-02-14T08:11:57.005Z,2.26
2023-02-14T08:12:59.304Z,2.35
2023-02-14T08:13:55.910Z,2.41
2023-02-14T08:14:52.508Z,2.41
2023-02-14T08:16:11.789Z,2.48
2023-02-14T08:17:10.199Z,2.15
2023-02-14T08:18:06.766Z,2.39
2023-02-14T08:19:03.934Z,2.66
2023-02-14T08:20:00.506Z,2.44
2023-02-14T08:20:57.494Z,2.56
2023-02-14T08:21:54.290Z,2.17
2023-02-14T08:22:50.925Z,2.37
2023-02-14T08:23:47.688Z,2.56
2023-02-14T08:24:45.114Z,1.88
2023-02-14T08:25:41.810Z,1.95
2023-02-14T08:26:38.336Z,2.50
2023-02-14T08:27:34.984Z,2.73
2023-02-14T08:28:33.274Z,1.48
2023-02-14T08:29:30.002Z,2.70
2023-02-14T08:30:26.632Z,2.82
2023-02-14T08:31:35.275Z,2.75
2023-02-14T08:32:32.787Z,2.14
2023-02-14T08:33:29.678Z,2.39
2023-02-14T08:34:26.414Z,2.27
2023-02-14T08:35:25.072Z,2.37
2023-02-14T08:36:22.851Z,2.44
2023-02-14T08:37:19.489Z,2.31
2023-02-14T08:38:16.160Z,2.07
2023-02-14T08:39:12.810Z,2.36
2023-02-14T08:40:09.889Z,2.42
2023-02-14T08:41:08.812Z,2.72
2023-02-14T08:42:06.590Z,2.99
2023-02-14T08:43:05.728Z,2.94
2023-02-14T08:44:02.932Z,2.74
2023-02-14T08:44:59.636Z,2.40
2023-02-14T08:45:56.242Z,2.53
2023-02-14T08:46:52.916Z,1.83
2023-02-14T08:47:49.587Z,2.05
2023-02-14T08:48:46.242Z,2.32
2023-02-14T08:49:42.867Z,2.35
2023-02-14T08:50:40.343Z,2.52
2023-02-14T08:51:36.928Z,2.87
2023-02-14T08:52:33.514Z,2.58
2023-02-14T08:53:30.177Z,2.48
2023-02-14T08:54:26.741Z,2.46
2023-02-14T08:55:23.369Z,2.64
2023-02-14T08:56:22.613Z,2.32
2023-02-14T08:57:19.260Z,2.36
2023-02-14T08:58:15.949Z,2.45
2023-02-14T08:59:12.614Z,2.38
2023-02-14T09:00:09.953Z,2.44
2023-02-14T09:01:14.507Z,2.42
2023-02-14T09:02:14.677Z,2.60
2023-02-14T09:03:11.268Z,2.36
2023-02-14T09:04:08.046Z,2.52
2023-02-14T09:05:06.227Z,2.24
2023-02-14T09:06:07.581Z,1.88
2023-02-14T09:07:04.655Z,1.90
2023-02-14T09:08:02.854Z,2.60
2023-02-14T09:09:01.506Z,2.56
2023-02-14T09:09:59.215Z,2.55
2023-02-14T09:10:55.818Z,2.95
2023-02-14T09:11:52.419Z,2.23
2023-02-14T09:12:49.017Z,2.94
2023-02-14T09:13:46.619Z,2.52
2023-02-14T09:14:44.145Z,2.73
2023-02-14T09:15:40.802Z,2.63
2023-02-14T09:16:37.461Z,2.99
2023-02-14T09:17:34.340Z,3.15
2023-02-14T09:18:30.970Z,2.59
2023-02-14T09:19:27.655Z,2.26
2023-02-14T09:20:24.372Z,2.38
2023-02-14T09:21:25.299Z,2.40
2023-02-14T09:22:22.123Z,2.27
2023-02-14T09:23:18.797Z,2.13
2023-02-14T09:24:15.412Z,2.49
2023-02-14T09:25:12.727Z,2.77
2023-02-14T09:26:12.318Z,2.78
2023-02-14T09:27:09.468Z,2.56
2023-02-14T09:28:06.049Z,2.80
2023-02-14T09:29:02.666Z,2.59
2023-02-14T09:29:59.347Z,2.70
2023-02-14T09:30:56.518Z,2.51
2023-02-14T09:31:54.266Z,2.84
2023-02-14T09:32:52.455Z,2.83
2023-02-14T09:33:50.342Z,2.74
2023-02-14T09:34:46.925Z,2.25
2023-02-14T09:35:43.498Z,2.17
2023-02-14T09:36:59.445Z,2.40
2023-02-14T09:37:56.047Z,2.00
2023-02-14T09:38:52.581Z,2.02
2023-02-14T09:39:49.164Z,2.46
2023-02-14T09:40:46.660Z,2.36
2023-02-14T09:41:51.057Z,2.25
2023-02-14T09:43:01.765Z,2.38
2023-02-14T09:44:08.002Z,2.50
2023-02-14T09:45:18.829Z,2.69
2023-02-14T09:46:18.527Z,2.44
2023-02-14T09:47:44.409Z,2.37
2023-02-14T09:48:45.093Z,2.08
2023-02-14T09:49:42.546Z,1.89
2023-02-14T09:50:45.283Z,2.41
2023-02-14T09:51:47.739Z,2.56
2023-02-14T09:52:46.974Z,2.49
2023-02-14T09:53:51.391Z,2.78
2023-02-14T09:54:54.689Z,2.49
2023-02-14T09:56:11.655Z,2.01
2023-02-14T09:57:21.925Z,2.49
2023-02-14T09:58:59.423Z,2.19
2023-02-14T10:00:23.397Z,2.11
2023-02-14T10:01:35.335Z,2.04
2023-02-14T10:02:47.517Z,2.38
2023-02-14T10:03:57.372Z,2.47
2023-02-14T10:05:06.990Z,2.40
2023-02-14T10:06:18.316Z,1.86
2023-02-14T10:07:33.855Z,1.97
2023-02-14T10:09:09.907Z,2.52
2023-02-14T10:10:18.974Z,2.51
2023-02-14T10:11:22.093Z,2.58
2023-02-14T10:12:37.751Z,2.59
2023-02-14T10:13:49.415Z,2.40
2023-02-14T10:14:47.417Z,2.48
2023-02-14T10:15:48.616Z,2.82
2023-02-14T10:16:56.592Z,2.23
2023-02-14T10:17:58.903Z,2.24
2023-02-14T10:19:01.682Z,2.07
2023-02-14T10:20:04.711Z,2.15
2023-02-14T10:21:03.056Z,1.69
2023-02-14T10:22:07.052Z,2.05
2023-02-14T10:23:32.449Z,2.30
2023-02-14T10:24:36.014Z,2.01
2023-02-14T10:25:43.934Z,2.17
2023-02-14T10:26:41.416Z,1.94
2023-02-14T10:27:42.500Z,2.40
2023-02-14T10:28:47.222Z,2.79
2023-02-14T10:29:43.917Z,2.65
2023-02-14T10:30:47.252Z,2.26
2023-02-14T10:31:56.554Z,2.69
2023-02-14T10:33:16.099Z,2.52
2023-02-14T10:34:16.090Z,2.44
2023-02-14T10:35:27.828Z,2.27
2023-02-14T10:36:41.264Z,2.39
2023-02-14T10:38:13.410Z,2.77
2023-02-14T10:39:28.698Z,2.89
2023-02-14T10:40:55.176Z,2.26
2023-02-14T10:42:11.891Z,2.14
2023-02-14T10:43:30.972Z,2.46
2023-02-14T10:44:46.306Z,2.29
2023-02-14T10:45:55.374Z,1.67
2023-02-14T10:47:02.866Z,2.32
2023-02-14T10:48:17.099Z,2.11
2023-02-14T10:49:25.868Z,1.96
2023-02-14T10:50:52.880Z,2.29
2023-02-14T10:52:24.189Z,2.46
2023-02-14T10:53:36.272Z,2.23
2023-02-14T10:54:39.090Z,2.31
2023-02-14T10:55:59.636Z,2.53
2023-02-14T10:57:02.685Z,2.60
2023-02-14T10:58:02.831Z,2.25
2023-02-14T10:59:08.775Z,2.72
2023-02-14T11:00:11.571Z,3.05
2023-02-14T11:01:15.328Z,3.02
2023-02-14T11:02:17.248Z,3.19
2023-02-14T11:03:14.617Z,3.10
2023-02-14T11:04:15.861Z,2.81
2023-02-14T11:05:23.968Z,2.67
2023-02-14T11:06:20.621Z,2.30
2023-02-14T11:07:19.683Z,2.46
2023-02-14T11:08:24.620Z,1.96
2023-02-14T11:09:21.490Z,1.94
2023-02-14T11:10:24.370Z,1.36
2023-02-14T11:11:25.098Z,2.21
2023-02-14T11:12:38.284Z,1.91
2023-02-14T11:13:37.468Z,2.49
2023-02-14T11:14:37.338Z,2.22
2023-02-14T11:15:39.147Z,2.17
2023-02-14T11:16:37.582Z,2.29
2023-02-14T11:17:36.014Z,2.43
2023-02-14T11:18:35.851Z,2.38
2023-02-14T11:19:37.483Z,1.65
2023-02-14T11:20:34.211Z,1.99
2023-02-14T11:21:40.502Z,1.89
2023-02-14T11:22:37.096Z,2.16
2023-02-14T11:23:45.204Z,1.97
2023-02-14T11:24:42.395Z,2.02
2023-02-14T11:25:39.076Z,2.44
2023-02-14T11:26:35.844Z,2.64
2023-02-14T11:27:33.225Z,2.52
2023-02-14T11:28:29.981Z,1.72
2023-02-14T11:29:33.685Z,1.93
2023-02-14T11:30:35.271Z,2.55
2023-02-14T11:31:37.760Z,2.11
2023-02-14T11:32:40.836Z,2.36
2023-02-14T11:33:44.191Z,2.31
2023-02-14T11:35:00.500Z,2.49
2023-02-14T11:35:58.144Z,2.38
2023-02-14T11:36:54.864Z,2.42
2023-02-14T11:37:54.135Z,1.71
2023-02-14T11:39:21.844Z,2.37
2023-02-14T11:40:35.364Z,2.42
2023-02-14T11:41:50.105Z,2.35
2023-02-14T11:42:51.600Z,2.58
2023-02-14T11:43:52.437Z,2.28
2023-02-14T11:44:56.096Z,2.20
2023-02-14T11:46:05.912Z,2.05
2023-02-14T11:47:19.556Z,2.09
2023-02-14T11:48:39.453Z,1.80
2023-02-14T11:49:36.470Z,2.00
2023-02-14T11:50:42.791Z,1.58
2023-02-14T11:52:14.771Z,2.01
2023-02-14T11:53:27.748Z,1.90
2023-02-14T11:54:37.708Z,2.15
2023-02-14T11:55:37.484Z,2.17
2023-02-14T11:57:00.135Z,1.85
2023-02-14T11:58:11.493Z,1.87
2023-02-14T11:59:08.218Z,1.33
2023-02-14T12:00:16.866Z,1.48
2023-02-14T12:01:26.889Z,1.83
2023-02-14T12:02:28.493Z,1.58
2023-02-14T12:03:28.395Z,1.63
2023-02-14T12:04:46.259Z,1.39
2023-02-14T12:05:50.174Z,1.91
2023-02-14T12:06:53.258Z,1.75
2023-02-14T12:07:52.770Z,1.48
2023-02-14T12:08:49.331Z,1.79
2023-02-14T12:09:48.524Z,1.87
2023-02-14T12:11:01.041Z,2.20
2023-02-14T12:12:00.481Z,2.02
2023-02-14T12:13:04.473Z,2.09
2023-02-14T12:14:01.086Z,1.87
2023-02-14T12:15:38.112Z,2.13
2023-02-14T12:16:49.178Z,2.16
2023-02-14T12:17:48.040Z,2.20
2023-02-14T12:18:54.660Z,2.15
2023-02-14T12:20:15.318Z,2.12
2023-02-14T12:21:26.092Z,1.95
2023-02-14T12:22:39.736Z,1.91
2023-02-14T12:23:51.340Z,2.00
2023-02-14T12:24:57.251Z,2.12
2023-02-14T12:26:04.669Z,2.22
2023-02-14T12:27:07.367Z,2.31
2023-02-14T12:28:11.510Z,2.70
2023-02-14T12:29:23.357Z,2.80
2023-02-14T12:30:22.411Z,2.69
2023-02-14T12:31:19.630Z,2.66
2023-02-14T12:32:27.065Z,2.57
2023-02-14T12:33:26.044Z,2.77
2023-02-14T12:34:22.770Z,2.15
2023-02-14T12:35:28.954Z,2.10
2023-02-14T12:36:50.158Z,2.08
2023-02-14T12:38:06.010Z,2.01
2023-02-14T12:39:26.105Z,2.25
2023-02-14T12:40:49.255Z,2.53
2023-02-14T12:42:14.049Z,2.50
2023-02-14T12:43:22.601Z,2.54
2023-02-14T12:44:37.653Z,2.43
2023-02-14T12:46:19.352Z,2.09
2023-02-14T12:47:39.785Z,2.38
2023-02-14T12:48:54.845Z,2.86
2023-02-14T12:50:14.310Z,3.05
2023-02-14T12:51:34.666Z,3.00
2023-02-14T12:52:51.560Z,2.65
2023-02-14T12:54:14.796Z,2.45
2023-02-14T12:56:03.544Z,2.84
2023-02-14T12:57:18.646Z,2.80
2023-02-14T12:58:30.487Z,3.13
2023-02-14T12:59:49.308Z,2.67
2023-02-14T13:01:28.423Z,2.95
2023-02-14T13:02:44.190Z,2.77
2023-02-14T13:03:59.461Z,2.52
2023-02-14T13:05:09.353Z,2.18
2023-02-14T13:06:23.984Z,2.62
2023-02-14T13:07:41.827Z,2.77
2023-02-14T13:08:53.828Z,2.62
2023-02-14T13:10:09.093Z,2.58
2023-02-14T13:11:14.441Z,2.48
2023-02-14T13:12:36.227Z,2.55
2023-02-14T13:14:04.387Z,2.47
2023-02-14T13:15:12.844Z,2.67
2023-02-14T13:16:28.736Z,2.48
2023-02-14T13:17:29.652Z,2.22
2023-02-14T13:18:38.203Z,1.97
2023-02-14T13:19:37.932Z,1.93
2023-02-14T13:20:37.621Z,2.24
2023-02-14T13:21:37.458Z,2.17
2023-02-14T13:22:36.141Z,2.44
2023-02-14T13:23:42.098Z,2.46
2023-02-14T13:24:44.727Z,2.46
2023-02-14T13:25:50.121Z,2.37
2023-02-14T13:26:53.883Z,1.91
2023-02-14T13:27:51.290Z,2.07
2023-02-14T13:28:52.375Z,2.37
2023-02-14T13:29:59.719Z,1.99
2023-02-14T13:30:59.320Z,1.86
2023-02-14T13:32:02.663Z,1.77